createdAt,value
2019-05-21T00:00:01.265Z,99.27
2019-05-21T00:05:01.413Z,99.23
2019-05-21T00:10:01.544Z,99.21
2019-05-21T00:15:01.717Z,99.37
2019-05-21T00:20:01.814Z,99.43
2019-05-21T00:25:01.923Z,99.45
2019-05-21T00:30:02.020Z,99.31
2019-05-21T00:35:01.245Z,99.45
2019-05-21T00:40:01.390Z,99.44
2019-05-21T00:45:01.539Z,99.63
2019-05-21T00:50:01.868Z,99.49
2019-05-21T00:55:02.099Z,99.48
2019-05-21T01:00:01.276Z,99.36
2019-05-21T01:05:01.758Z,99.43
2019-05-21T01:10:02.097Z,99.46
2019-05-21T01:15:01.462Z,99.47
2019-05-21T01:20:01.729Z,99.42
2019-05-21T01:25:01.962Z,99.42
2019-05-21T01:30:02.145Z,99.41
2019-05-21T01:35:16.074Z,99.46
2019-05-21T01:40:02.070Z,99.49
2019-05-21T01:45:01.341Z,99.5
2019-05-21T01:50:01.594Z,99.43
2019-05-21T01:55:01.755Z,99.5
2019-05-21T02:00:01.877Z,99.51
2019-05-21T02:05:02.028Z,99.51
2019-05-21T02:10:01.182Z,99.48
2019-05-21T02:15:01.985Z,99.48
2019-05-21T02:20:01.171Z,99.5
2019-05-21T02:25:01.267Z,99.6
2019-05-21T02:30:01.447Z,99.65
2019-05-21T02:35:01.624Z,99.66
2019-05-21T02:40:01.275Z,99.78
2019-05-21T02:45:01.412Z,99.7
2019-05-21T02:50:01.516Z,99.79
2019-05-21T02:55:01.868Z,99.7
2019-05-21T03:00:02.085Z,99.59
2019-05-21T03:05:01.244Z,99.96
2019-05-21T03:10:01.372Z,99.77
2019-05-21T03:15:01.558Z,99.71
2019-05-21T03:20:01.696Z,99.81
2019-05-21T03:25:02.940Z,99.8
2019-05-21T03:30:01.234Z,99.82
2019-05-21T03:35:01.381Z,99.74
2019-05-21T03:40:01.534Z,99.85
2019-05-21T03:45:01.725Z,99.88
2019-05-21T03:50:01.955Z,99.76
2019-05-21T03:55:03.252Z,99.92
2019-05-21T04:00:01.698Z,99.96
2019-05-21T04:05:01.908Z,99.93
2019-05-21T04:10:02.036Z,99.98
2019-05-21T04:15:01.182Z,100.04
2019-05-21T04:20:01.351Z,100.14
2019-05-21T04:25:01.461Z,100.2
2019-05-21T04:30:01.751Z,100.25
2019-05-21T04:35:02.092Z,100.27
2019-05-21T04:40:01.702Z,100.27
2019-05-21T04:45:01.842Z,100.25
2019-05-21T04:50:02.039Z,100.26
2019-05-21T04:55:01.751Z,100.15
2019-05-21T05:00:01.887Z,100.15
2019-05-21T05:05:02.029Z,100.14
2019-05-21T05:10:01.187Z,100.06
2019-05-21T05:15:01.301Z,100.17
2019-05-21T05:20:01.440Z,100.1
2019-05-21T05:25:01.631Z,100.23
2019-05-21T05:30:01.846Z,100.23
2019-05-21T05:35:02.043Z,100.28
2019-05-21T05:40:01.189Z,100.21
2019-05-21T05:45:01.315Z,100.15
2019-05-21T05:50:01.411Z,100.32
2019-05-21T05:55:01.573Z,100.43
2019-05-21T06:00:01.704Z,100.41
2019-05-21T06:05:01.823Z,100.44
2019-05-21T06:10:02.073Z,100.53
2019-05-21T06:15:01.371Z,100.5
2019-05-21T06:20:01.573Z,100.62
2019-05-21T06:25:01.801Z,100.5
2019-05-21T06:30:01.979Z,100.48
2019-05-21T06:35:01.168Z,100.47
2019-05-21T06:40:01.299Z,100.46
2019-05-21T06:45:01.683Z,100.54
2019-05-21T06:50:01.922Z,100.53
2019-05-21T06:55:02.077Z,100.49
2019-05-21T07:00:01.213Z,100.44
2019-05-21T07:05:01.384Z,100.46
2019-05-21T07:10:01.514Z,100.62
2019-05-21T07:15:01.662Z,100.48
2019-05-21T07:20:02.083Z,100.37
2019-05-21T07:25:01.332Z,100.38
2019-05-21T07:30:01.482Z,100.49
2019-05-21T07:35:01.708Z,100.53
2019-05-21T07:40:01.851Z,100.45
2019-05-21T07:45:02.218Z,100.46
2019-05-21T07:50:01.565Z,100.47
2019-05-21T07:55:01.770Z,100.62
2019-05-21T08:00:01.932Z,100.53
2019-05-21T08:05:01.268Z,100.59
2019-05-21T08:10:01.513Z,100.53
2019-05-21T08:15:01.686Z,100.69
2019-05-21T08:20:09.314Z,100.66
2019-05-21T08:25:01.495Z,100.64
2019-05-21T08:30:01.635Z,100.53
2019-05-21T08:35:01.765Z,100.63
2019-05-21T08:40:02.004Z,100.52
2019-05-21T08:45:01.430Z,100.62
2019-05-21T08:50:01.755Z,100.56
2019-05-21T08:55:01.921Z,100.62
2019-05-21T09:00:02.063Z,100.47
2019-05-21T09:05:01.188Z,100.49
2019-05-21T09:10:01.334Z,100.55
2019-05-21T09:15:01.500Z,100.52
2019-05-21T09:20:01.624Z,100.42
2019-05-21T09:25:02.360Z,100.42
2019-05-21T09:30:01.873Z,100.4
2019-05-21T09:35:02.052Z,100.42
2019-05-21T09:40:01.170Z,100.35
2019-05-21T09:45:01.362Z,100.33
2019-05-21T09:50:02.047Z,100.47
2019-05-21T09:55:01.180Z,100.31
2019-05-21T10:00:01.417Z,100.32
2019-05-21T10:05:01.667Z,100.41
2019-05-21T10:10:02.264Z,100.4
2019-05-21T10:15:01.472Z,100.48
2019-05-21T10:20:01.635Z,100.46
2019-05-21T10:25:01.762Z,100.43
2019-05-21T10:30:01.903Z,100.41
2019-05-21T10:35:02.343Z,100.4
2019-05-21T10:40:01.953Z,100.56
2019-05-21T10:45:01.647Z,100.54
2019-05-21T10:50:01.797Z,100.28
2019-05-21T10:55:01.970Z,100.3
2019-05-21T11:00:01.204Z,100.35
2019-05-21T11:05:01.573Z,100.26
2019-05-21T11:10:01.715Z,100.35
2019-05-21T11:15:01.886Z,100.24
2019-05-21T11:20:02.052Z,100.27
2019-05-21T11:25:01.190Z,100.2
2019-05-21T11:30:01.325Z,100.36
2019-05-21T11:35:01.514Z,100.39
2019-05-21T11:40:01.601Z,100.26
2019-05-21T11:45:01.735Z,100.19
2019-05-21T11:50:01.881Z,100.2
2019-05-21T11:55:02.036Z,100.23
2019-05-21T12:00:01.177Z,100.11
2019-05-21T12:05:01.351Z,100.17
2019-05-21T12:10:01.517Z,100.08
2019-05-21T12:15:01.753Z,100.16
2019-05-21T12:20:01.906Z,100.17
2019-05-21T12:25:02.042Z,100.29
2019-05-21T12:30:01.209Z,100.14
2019-05-21T12:35:01.386Z,100.1
2019-05-21T12:40:01.516Z,100.12
2019-05-21T12:45:01.708Z,100.3
2019-05-21T12:50:01.872Z,100.16
2019-05-21T12:55:02.075Z,100.05
2019-05-21T13:00:01.201Z,100.2
2019-05-21T13:05:01.387Z,100.15
2019-05-21T13:10:01.539Z,100.01
2019-05-21T13:15:01.692Z,100.11
2019-05-21T13:20:02.997Z,100.1
2019-05-21T13:25:01.135Z,99.98
2019-05-21T13:30:01.276Z,100.08
2019-05-21T13:35:01.699Z,100.04
2019-05-21T13:40:01.250Z,100.08
2019-05-21T13:45:01.385Z,100.04
2019-05-21T13:50:01.517Z,100
2019-05-21T13:55:01.660Z,99.72
2019-05-21T14:00:02.018Z,99.78
2019-05-21T14:05:01.620Z,99.84
2019-05-21T14:10:13.991Z,99.72
2019-05-21T14:15:01.774Z,99.79
2019-05-21T14:20:01.881Z,99.78
2019-05-21T14:25:01.978Z,99.63
2019-05-21T14:30:02.161Z,99.55
2019-05-21T14:35:02.321Z,99.59
2019-05-21T14:40:01.680Z,99.63
2019-05-21T14:45:01.818Z,99.65
2019-05-21T14:50:01.980Z,99.56
2019-05-21T14:55:03.048Z,99.73
2019-05-21T15:00:01.573Z,99.65
2019-05-21T15:05:01.732Z,99.59
2019-05-21T15:10:01.900Z,99.61
2019-05-21T15:15:02.753Z,99.83
2019-05-21T15:20:01.296Z,99.74
2019-05-21T15:25:01.429Z,99.59
2019-05-21T15:30:01.572Z,99.81
2019-05-21T15:35:01.930Z,99.84
2019-05-21T15:40:01.170Z,99.72
2019-05-21T15:45:01.300Z,99.75
2019-05-21T15:50:01.499Z,99.82
2019-05-21T15:55:06.570Z,99.85
2019-05-21T16:00:01.221Z,100.04
2019-05-21T16:05:01.391Z,99.85
2019-05-21T16:10:01.515Z,99.96
2019-05-21T16:15:01.801Z,99.88
2019-05-21T16:20:01.120Z,100.01
2019-05-21T16:25:01.316Z,99.93
2019-05-21T16:30:01.484Z,99.91
2019-05-21T16:35:01.627Z,99.79
2019-05-21T16:40:01.807Z,99.79
2019-05-21T16:45:01.983Z,99.82
2019-05-21T16:50:01.205Z,99.74
2019-05-21T16:55:01.334Z,99.7
2019-05-21T17:00:01.430Z,99.85
2019-05-21T17:05:01.582Z,100
2019-05-21T17:10:01.773Z,99.81
2019-05-21T17:15:02.028Z,99.92
2019-05-21T17:20:01.330Z,99.83
2019-05-21T17:25:01.457Z,99.89
2019-05-21T17:30:01.626Z,100.07
2019-05-21T17:35:01.758Z,100.01
2019-05-21T17:40:01.905Z,99.8
2019-05-21T17:45:02.030Z,99.92
2019-05-21T17:50:01.184Z,99.86
2019-05-21T17:55:01.326Z,99.82
2019-05-21T18:00:01.582Z,99.86
2019-05-21T18:05:01.854Z,99.88
2019-05-21T18:10:02.025Z,99.87
2019-05-21T18:15:01.217Z,99.89
2019-05-21T18:20:01.326Z,99.9
2019-05-21T18:25:01.484Z,99.95
2019-05-21T18:30:03.804Z,99.83
2019-05-21T18:35:01.280Z,99.94
2019-05-21T18:40:01.410Z,99.89
2019-05-21T18:45:01.548Z,99.89
2019-05-21T18:50:01.704Z,99.91
2019-05-21T18:55:01.843Z,99.85
2019-05-21T19:00:01.984Z,99.81
2019-05-21T19:05:01.139Z,99.73
2019-05-21T19:10:01.679Z,99.77
2019-05-21T19:15:02.524Z,99.8
2019-05-21T19:20:01.794Z,99.84
2019-05-21T19:25:01.891Z,99.85
2019-05-21T19:30:02.059Z,99.86
2019-05-21T19:35:01.237Z,99.8
2019-05-21T19:40:01.384Z,99.88
2019-05-21T19:45:01.594Z,99.85
2019-05-21T19:50:01.846Z,99.76
2019-05-21T19:55:01.998Z,99.88
2019-05-21T20:00:01.139Z,99.89
2019-05-21T20:05:01.295Z,99.82
2019-05-21T20:10:01.569Z,99.9
2019-05-21T20:15:01.960Z,99.73
2019-05-21T20:20:02.092Z,99.79
2019-05-21T20:25:01.225Z,99.76
2019-05-21T20:30:12.178Z,99.76
2019-05-21T20:35:01.166Z,99.85
2019-05-21T20:40:01.304Z,99.72
2019-05-21T20:45:01.436Z,99.86
2019-05-21T20:50:01.581Z,99.92
2019-05-21T20:55:01.715Z,99.88
2019-05-21T21:00:01.851Z,99.79
2019-05-21T21:05:01.974Z,99.83
2019-05-21T21:10:02.514Z,99.8
2019-05-21T21:15:01.692Z,99.81
2019-05-21T21:20:01.843Z,99.77
2019-05-21T21:25:01.975Z,99.88
2019-05-21T21:30:02.267Z,99.82
2019-05-21T21:35:01.464Z,99.87
2019-05-21T21:40:01.893Z,99.79
2019-05-21T21:45:01.137Z,99.75
2019-05-21T21:50:01.298Z,99.76
2019-05-21T21:55:01.426Z,99.79
2019-05-21T22:00:01.564Z,99.79
2019-05-21T22:05:01.685Z,99.79
2019-05-21T22:10:01.841Z,99.85
2019-05-21T22:15:01.978Z,99.75
2019-05-21T22:20:01.125Z,99.75
2019-05-21T22:25:01.255Z,99.77
2019-05-21T22:30:01.378Z,99.75
2019-05-21T22:35:01.479Z,99.8
2019-05-21T22:40:01.613Z,99.85
2019-05-21T22:45:07.901Z,99.75
2019-05-21T22:50:02.222Z,99.79
2019-05-21T22:55:01.413Z,99.78
2019-05-21T23:00:01.598Z,99.76
2019-05-21T23:05:01.834Z,99.85
2019-05-21T23:15:01.150Z,99.4
2019-05-21T23:20:01.279Z,99.59
2019-05-21T23:25:01.422Z,99.64
2019-05-21T23:30:01.520Z,99.49
2019-05-21T23:35:01.651Z,99.43
2019-05-21T23:40:01.796Z,99.45
2019-05-21T23:45:01.931Z,99.6
2019-05-21T23:50:02.065Z,99.44
2019-05-21T23:55:01.225Z,99.59
